createdAt,value
2018-12-05T00:00:12.483Z,5.77
2018-12-05T00:00:52.899Z,5.75
2018-12-05T00:01:33.277Z,5.75
2018-12-05T00:02:13.732Z,5.69
2018-12-05T00:02:54.233Z,5.7
2018-12-05T00:03:34.576Z,5.81
2018-12-05T00:04:14.976Z,5.93
2018-12-05T00:04:55.410Z,5.98
2018-12-05T00:05:35.843Z,5.9
2018-12-05T00:06:16.222Z,5.87
2018-12-05T00:06:56.616Z,5.99
2018-12-05T00:07:37.035Z,5.93
2018-12-05T00:08:17.484Z,5.88
2018-12-05T00:09:00.860Z,5.98
2018-12-05T00:09:41.374Z,5.87
2018-12-05T00:10:21.853Z,5.83
2018-12-05T00:11:02.246Z,5.77
2018-12-05T00:11:42.671Z,5.75
2018-12-05T00:12:23.074Z,5.74
2018-12-05T00:13:03.511Z,5.7
2018-12-05T00:14:55.346Z,5.37
2018-12-05T00:15:48.258Z,5.41
2018-12-05T00:16:40.725Z,5.33
2018-12-05T00:17:33.548Z,5.27
2018-12-05T00:18:24.728Z,5.22
2018-12-05T00:19:17.315Z,5.17
2018-12-05T00:20:10.706Z,5.15
2018-12-05T00:21:02.863Z,5.15
2018-12-05T00:21:54.720Z,5.12
2018-12-05T00:22:47.043Z,5.22
2018-12-05T00:23:39.464Z,5.23
2018-12-05T00:24:32.423Z,5.23
2018-12-05T00:25:24.320Z,5.14
2018-12-05T00:26:18.279Z,5.11
2018-12-05T00:27:11.249Z,5.14
2018-12-05T00:29:11.052Z,5.12
2018-12-05T00:29:53.134Z,5.06
2018-12-05T00:30:33.435Z,5.06
2018-12-05T00:31:13.838Z,5.11
2018-12-05T00:31:54.228Z,5.02
2018-12-05T00:32:40.654Z,4.88
2018-12-05T00:34:21.736Z,4.91
2018-12-05T00:35:14.519Z,4.96
2018-12-05T00:36:07.146Z,4.91
2018-12-05T00:36:59.736Z,4.79
2018-12-05T00:37:52.292Z,4.8
2018-12-05T00:38:44.335Z,4.96
2018-12-05T00:39:36.859Z,4.96
2018-12-05T00:40:29.491Z,4.9
2018-12-05T00:41:21.820Z,4.93
2018-12-05T00:42:13.595Z,4.93
2018-12-05T00:43:05.787Z,4.96
2018-12-05T00:43:58.295Z,4.93
2018-12-05T00:44:50.747Z,4.94
2018-12-05T00:45:43.348Z,4.86
2018-12-05T00:46:35.761Z,4.84
2018-12-05T00:47:28.061Z,4.79
2018-12-05T00:48:20.233Z,4.8
2018-12-05T00:49:12.656Z,4.77
2018-12-05T00:50:04.645Z,4.84
2018-12-05T00:50:57.103Z,4.8
2018-12-05T00:51:49.363Z,4.74
2018-12-05T00:52:41.430Z,4.79
2018-12-05T00:53:33.558Z,4.71
2018-12-05T00:54:25.973Z,4.74
2018-12-05T00:55:18.234Z,4.59
2018-12-05T00:56:10.676Z,4.56
2018-12-05T00:56:55.232Z,4.53
2018-12-05T00:57:35.658Z,4.69
2018-12-05T00:58:16.030Z,4.64
2018-12-05T00:58:56.347Z,4.64
2018-12-05T00:59:36.716Z,4.62
2018-12-05T01:00:17.164Z,4.67
2018-12-05T01:00:57.689Z,4.65
2018-12-05T01:01:38.064Z,4.65
2018-12-05T01:02:18.391Z,4.64
2018-12-05T01:02:58.826Z,4.69
2018-12-05T01:03:39.237Z,4.64
2018-12-05T01:04:19.684Z,4.68
2018-12-05T01:05:00.077Z,4.62
2018-12-05T01:05:40.553Z,4.61
2018-12-05T01:06:20.842Z,4.62
2018-12-05T01:07:01.300Z,4.62
2018-12-05T01:07:41.725Z,4.59
2018-12-05T01:08:22.008Z,4.62
2018-12-05T01:09:02.485Z,4.71
2018-12-05T01:09:42.855Z,4.74
2018-12-05T01:10:23.321Z,4.8
2018-12-05T01:11:03.656Z,4.86
2018-12-05T01:11:44.106Z,4.86
2018-12-05T01:12:24.566Z,4.67
2018-12-05T01:13:04.998Z,4.64
2018-12-05T01:13:45.281Z,4.53
2018-12-05T01:14:25.632Z,4.56
2018-12-05T01:15:06.052Z,4.62
2018-12-05T01:15:46.467Z,4.56
2018-12-05T01:16:26.767Z,4.61
2018-12-05T01:17:07.224Z,4.5
2018-12-05T01:17:47.522Z,4.5
2018-12-05T01:18:28.018Z,4.56
2018-12-05T01:19:08.354Z,4.68
2018-12-05T01:19:48.710Z,4.5
2018-12-05T01:20:29.126Z,4.61
2018-12-05T01:21:09.534Z,4.53
2018-12-05T01:21:49.950Z,4.53
2018-12-05T01:22:30.345Z,4.62
2018-12-05T01:23:10.696Z,4.56
2018-12-05T01:23:51.163Z,4.53
2018-12-05T01:24:31.596Z,4.56
2018-12-05T01:25:11.975Z,4.65
2018-12-05T01:25:52.371Z,4.71
2018-12-05T01:26:32.756Z,4.65
2018-12-05T01:27:13.139Z,4.77
2018-12-05T01:27:53.459Z,4.71
2018-12-05T01:28:33.949Z,4.64
2018-12-05T01:29:14.331Z,4.64
2018-12-05T01:29:54.694Z,4.61
2018-12-05T01:30:35.160Z,4.57
2018-12-05T01:31:15.539Z,4.61
2018-12-05T01:31:55.856Z,4.68
2018-12-05T01:32:36.301Z,4.75
2018-12-05T01:33:16.648Z,4.86
2018-12-05T01:33:57.049Z,4.84
2018-12-05T01:34:37.450Z,4.9
2018-12-05T01:35:17.950Z,4.97
2018-12-05T01:35:58.297Z,5.04
2018-12-05T01:36:38.695Z,5.02
2018-12-05T01:37:19.011Z,5.12
2018-12-05T01:37:59.459Z,5.04
2018-12-05T01:38:39.810Z,5.06
2018-12-05T01:39:20.249Z,4.88
2018-12-05T01:40:00.621Z,4.9
2018-12-05T01:40:41.017Z,4.83
2018-12-05T01:41:21.379Z,4.77
2018-12-05T01:42:01.835Z,4.79
2018-12-05T01:42:42.144Z,4.71
2018-12-05T01:43:22.581Z,4.74
2018-12-05T01:44:02.974Z,4.68
2018-12-05T01:44:43.400Z,4.68
2018-12-05T01:45:23.773Z,4.74
2018-12-05T01:46:04.193Z,4.8
2018-12-05T01:46:44.592Z,4.8
2018-12-05T01:47:24.956Z,4.8
2018-12-05T01:48:05.427Z,4.86
2018-12-05T01:48:45.813Z,4.94
2018-12-05T01:49:26.172Z,4.87
2018-12-05T01:50:06.620Z,4.8
2018-12-05T01:50:46.982Z,4.87
2018-12-05T01:51:27.374Z,4.96
2018-12-05T01:52:07.758Z,5.11
2018-12-05T01:52:48.716Z,5.02
2018-12-05T01:53:28.478Z,5.08
2018-12-05T01:54:08.892Z,5.06
2018-12-05T01:54:49.332Z,5.04
2018-12-05T01:55:29.665Z,5.17
2018-12-05T01:56:10.067Z,5.15
2018-12-05T01:56:50.500Z,5.12
2018-12-05T01:57:30.950Z,5.15
2018-12-05T01:58:11.404Z,5.12
2018-12-05T01:58:51.820Z,5.06
2018-12-05T01:59:32.190Z,5.15
2018-12-05T02:00:12.616Z,5.19
2018-12-05T02:00:52.943Z,5.15
2018-12-05T02:01:33.398Z,5.14
2018-12-05T02:02:13.714Z,5.17
2018-12-05T02:02:54.141Z,5.09
2018-12-05T02:03:34.540Z,5.09
2018-12-05T02:04:14.904Z,5.09
2018-12-05T02:04:55.251Z,5.02
2018-12-05T02:05:35.638Z,5.14
2018-12-05T02:06:16.126Z,5.08
2018-12-05T02:06:56.476Z,4.96
2018-12-05T02:07:36.902Z,4.88
2018-12-05T02:08:17.237Z,4.87
2018-12-05T02:08:57.644Z,4.88
2018-12-05T02:09:38.090Z,4.79
2018-12-05T02:10:18.457Z,4.75
2018-12-05T02:10:58.799Z,4.75
2018-12-05T02:11:39.203Z,4.86
2018-12-05T02:12:19.563Z,4.77
2018-12-05T02:12:59.914Z,4.79
2018-12-05T02:13:40.332Z,4.84
2018-12-05T02:14:20.738Z,4.86
2018-12-05T02:15:01.187Z,4.87
2018-12-05T02:15:41.512Z,4.8
2018-12-05T02:16:21.964Z,4.77
2018-12-05T02:17:02.295Z,4.74
2018-12-05T02:17:42.732Z,4.79
2018-12-05T02:18:23.078Z,4.75
2018-12-05T02:19:03.491Z,4.83
2018-12-05T02:19:43.868Z,4.86
2018-12-05T02:20:24.247Z,4.96
2018-12-05T02:21:04.696Z,5.06
2018-12-05T02:21:45.058Z,5.01
2018-12-05T02:22:25.460Z,4.93
2018-12-05T02:23:05.847Z,4.93
2018-12-05T02:23:46.345Z,4.91
2018-12-05T02:24:26.810Z,4.91
2018-12-05T02:25:07.146Z,4.97
2018-12-05T02:25:47.528Z,4.97
2018-12-05T02:26:27.951Z,4.91
2018-12-05T02:27:08.298Z,4.94
2018-12-05T02:27:48.653Z,4.9
2018-12-05T02:28:29.123Z,4.86
2018-12-05T02:29:09.517Z,4.79
2018-12-05T02:29:49.926Z,4.75
2018-12-05T02:30:30.256Z,4.72
2018-12-05T02:31:10.680Z,4.69
2018-12-05T02:31:51.097Z,4.64
2018-12-05T02:32:31.453Z,4.79
2018-12-05T02:33:11.867Z,4.83
2018-12-05T02:33:52.258Z,4.93
2018-12-05T02:34:32.602Z,4.93
2018-12-05T02:35:13.009Z,4.86
2018-12-05T02:35:53.364Z,4.83
2018-12-05T02:36:33.835Z,4.77
2018-12-05T02:37:14.208Z,4.72
2018-12-05T02:37:54.615Z,4.67
2018-12-05T02:38:34.945Z,4.59
2018-12-05T02:39:15.331Z,4.5
2018-12-05T02:39:55.745Z,4.43
2018-12-05T02:40:36.147Z,4.38
2018-12-05T02:41:16.512Z,4.32
2018-12-05T02:41:57.018Z,4.29
2018-12-05T02:42:37.474Z,4.36
2018-12-05T02:43:17.859Z,4.29
2018-12-05T02:43:58.247Z,4.32
2018-12-05T02:44:38.601Z,4.34
2018-12-05T02:45:18.999Z,4.38
2018-12-05T02:45:59.329Z,4.49
2018-12-05T02:46:39.776Z,4.53
2018-12-05T02:47:20.227Z,4.54
2018-12-05T02:48:00.645Z,4.5
2018-12-05T02:48:41.051Z,4.32
2018-12-05T02:49:21.566Z,4.28
2018-12-05T02:50:01.839Z,4.24
2018-12-05T02:50:42.291Z,4.2
2018-12-05T02:51:22.651Z,4.28
2018-12-05T02:52:03.045Z,4.14
2018-12-05T02:52:43.443Z,4.24
2018-12-05T02:53:23.827Z,4.11
2018-12-05T02:54:04.175Z,4.21
2018-12-05T02:54:44.675Z,4.35
2018-12-05T02:55:25.143Z,4.54
2018-12-05T02:56:05.486Z,4.46
2018-12-05T02:56:45.846Z,4.44
2018-12-05T02:57:26.299Z,4.42
2018-12-05T02:58:06.684Z,4.42
2018-12-05T02:58:47.103Z,4.5
2018-12-05T02:59:27.514Z,4.5
2018-12-05T03:00:07.820Z,4.51
2018-12-05T03:00:48.353Z,4.49
2018-12-05T03:01:28.685Z,4.53
2018-12-05T03:02:09.032Z,4.57
2018-12-05T03:02:49.407Z,4.68
2018-12-05T03:03:29.740Z,4.67
2018-12-05T03:04:10.178Z,4.91
2018-12-05T03:04:50.550Z,5.06
2018-12-05T03:05:31.000Z,5.04
2018-12-05T03:06:11.345Z,5.08
2018-12-05T03:06:51.783Z,5.09
2018-12-05T03:07:32.148Z,5.11
2018-12-05T03:08:12.585Z,5.08
2018-12-05T03:08:52.937Z,5.05
2018-12-05T03:09:33.401Z,5.15
2018-12-05T03:10:13.748Z,5.24
2018-12-05T03:10:54.200Z,5.4
2018-12-05T03:11:34.556Z,5.4
2018-12-05T03:12:14.956Z,5.4
2018-12-05T03:12:55.370Z,5.44
2018-12-05T03:13:35.703Z,5.35
2018-12-05T03:14:16.203Z,5.33
2018-12-05T03:14:56.602Z,5.3
2018-12-05T03:15:36.951Z,5.33
2018-12-05T03:16:17.417Z,5.35
2018-12-05T03:16:57.773Z,5.38
2018-12-05T03:17:38.139Z,5.41
2018-12-05T03:18:18.548Z,5.48
2018-12-05T03:18:58.980Z,5.35
2018-12-05T03:19:39.392Z,5.38
2018-12-05T03:20:19.786Z,5.23
2018-12-05T03:21:00.151Z,5.42
2018-12-05T03:21:40.543Z,5.37
2018-12-05T03:22:20.951Z,5.42
2018-12-05T03:23:01.329Z,5.42
2018-12-05T03:23:41.784Z,5.37
2018-12-05T03:24:22.212Z,5.23
2018-12-05T03:25:02.559Z,5.45
2018-12-05T03:25:42.970Z,5.52
2018-12-05T03:26:23.371Z,5.58
2018-12-05T03:27:03.786Z,5.47
2018-12-05T03:27:44.137Z,5.51
2018-12-05T03:28:24.517Z,5.45
2018-12-05T03:29:06.712Z,5.49
2018-12-05T03:29:45.349Z,5.47
2018-12-05T03:30:25.689Z,5.41
2018-12-05T03:31:06.161Z,5.35
2018-12-05T03:31:46.530Z,5.29
2018-12-05T03:32:27.003Z,5.32
2018-12-05T03:33:07.398Z,5.2
2018-12-05T03:33:47.707Z,5.2
2018-12-05T03:34:28.160Z,5.23
2018-12-05T03:35:08.586Z,5.14
2018-12-05T03:35:48.912Z,5.14
2018-12-05T03:36:29.360Z,5.05
2018-12-05T03:37:09.814Z,5.06
2018-12-05T03:37:50.217Z,5.06
2018-12-05T03:38:30.602Z,5.11
2018-12-05T03:39:11.040Z,4.97
2018-12-05T03:39:51.364Z,4.99
2018-12-05T03:40:31.783Z,4.87
2018-12-05T03:41:12.186Z,4.88
2018-12-05T03:41:52.603Z,4.88
2018-12-05T03:42:33.081Z,4.9
2018-12-05T03:43:13.438Z,5.01
2018-12-05T03:43:53.805Z,5.06
2018-12-05T03:44:34.138Z,5.05
2018-12-05T03:45:14.547Z,5.05
2018-12-05T03:45:54.994Z,4.96
2018-12-05T03:46:35.334Z,4.96
2018-12-05T03:47:16.014Z,4.91
2018-12-05T03:47:56.313Z,4.96
2018-12-05T03:48:36.769Z,4.87
2018-12-05T03:49:17.097Z,5.06
2018-12-05T03:49:57.512Z,5.05
2018-12-05T03:50:37.894Z,5.09
2018-12-05T03:51:18.261Z,5.05
2018-12-05T03:51:58.561Z,5.22
2018-12-05T03:52:39.110Z,5.12
2018-12-05T03:53:19.430Z,5.15
2018-12-05T03:53:59.778Z,5.12
2018-12-05T03:54:40.212Z,5.3
2018-12-05T03:55:20.679Z,5.23
2018-12-05T03:56:00.972Z,5.27
2018-12-05T03:56:41.470Z,5.37
2018-12-05T03:57:21.805Z,5.65
2018-12-05T03:58:02.319Z,5.7
2018-12-05T03:58:42.617Z,5.9
2018-12-05T03:59:23.020Z,6.05
2018-12-05T04:00:03.494Z,6.16
2018-12-05T04:00:43.805Z,6.05
2018-12-05T04:01:24.217Z,6.06
2018-12-05T04:02:04.653Z,5.9
2018-12-05T04:02:45.729Z,5.98
2018-12-05T04:03:25.502Z,6.08
2018-12-05T04:04:05.985Z,6.05
2018-12-05T04:04:46.413Z,6.06
2018-12-05T04:05:26.929Z,6.16
2018-12-05T04:06:07.142Z,6.14
2018-12-05T04:06:47.594Z,6.25
2018-12-05T04:07:28.064Z,6.25
2018-12-05T04:08:08.433Z,6.27
2018-12-05T04:08:48.861Z,6.3
2018-12-05T04:09:29.210Z,6.27
2018-12-05T04:10:09.622Z,6.33
2018-12-05T04:10:50.052Z,6.36
2018-12-05T04:11:30.338Z,6.36
2018-12-05T04:12:11.233Z,6.46
2018-12-05T04:12:51.208Z,6.54
2018-12-05T04:13:31.576Z,6.57
2018-12-05T04:14:11.956Z,6.65
2018-12-05T04:14:52.392Z,6.83
2018-12-05T04:15:32.774Z,6.78
2018-12-05T04:16:13.130Z,6.81
2018-12-05T04:16:53.545Z,6.68
2018-12-05T04:17:33.906Z,6.55
2018-12-05T04:18:14.343Z,6.46
2018-12-05T04:18:54.700Z,6.39
2018-12-05T04:19:35.047Z,6.28
2018-12-05T04:20:15.506Z,6.1
2018-12-05T04:20:55.928Z,6.17
2018-12-05T04:21:36.450Z,6.13
2018-12-05T04:22:16.785Z,6.06
2018-12-05T04:22:57.141Z,5.96
2018-12-05T04:23:37.524Z,5.87
2018-12-05T04:24:17.971Z,5.81
2018-12-05T04:24:58.295Z,5.78
2018-12-05T04:25:38.780Z,5.73
2018-12-05T04:26:19.269Z,5.65
2018-12-05T04:26:59.636Z,5.63
2018-12-05T04:27:39.994Z,5.69
2018-12-05T05:06:43.694Z,3.74
2018-12-05T05:07:35.867Z,3.6
2018-12-05T05:08:27.851Z,3.63
2018-12-05T05:09:20.239Z,3.57
2018-12-05T05:10:12.482Z,3.54
2018-12-05T05:12:14.530Z,3.62
2018-12-05T05:13:06.229Z,3.57
2018-12-05T05:13:57.882Z,3.56
2018-12-05T05:14:49.959Z,3.57
2018-12-05T05:15:42.066Z,3.59
2018-12-05T05:16:32.635Z,3.54
2018-12-05T05:17:13.069Z,3.6
2018-12-05T05:17:53.469Z,3.68
2018-12-05T05:18:33.900Z,3.75
2018-12-05T05:19:14.272Z,3.78
2018-12-05T05:19:54.694Z,3.78
2018-12-05T05:20:35.039Z,3.71
2018-12-05T05:21:15.504Z,3.64
2018-12-05T05:21:55.893Z,3.71
2018-12-05T05:22:36.242Z,3.71
2018-12-05T05:23:16.694Z,3.72
2018-12-05T05:23:57.122Z,3.81
2018-12-05T05:24:37.453Z,3.78
2018-12-05T05:25:17.936Z,3.82
2018-12-05T05:25:58.322Z,3.95
2018-12-05T05:26:38.757Z,4.1
2018-12-05T05:27:19.075Z,4.04
2018-12-05T05:27:59.528Z,4.08
2018-12-05T05:28:39.936Z,4.1
2018-12-05T05:29:20.337Z,4.14
2018-12-05T05:30:00.690Z,4.32
2018-12-05T05:30:41.139Z,4.26
2018-12-05T05:31:21.591Z,4.39
2018-12-05T05:32:01.935Z,4.38
2018-12-05T05:32:42.264Z,4.42
2018-12-05T05:33:22.656Z,4.56
2018-12-05T05:34:03.104Z,4.62
2018-12-05T05:34:43.449Z,4.57
2018-12-05T05:35:23.829Z,4.5
2018-12-05T05:36:04.244Z,4.54
2018-12-05T05:36:44.654Z,4.44
2018-12-05T05:37:25.118Z,4.42
2018-12-05T05:38:05.564Z,4.28
2018-12-05T05:38:45.959Z,4.42
2018-12-05T05:39:26.444Z,4.35
2018-12-05T05:40:06.885Z,4.44
2018-12-05T05:40:47.209Z,4.43
2018-12-05T05:41:27.624Z,4.39
2018-12-05T05:42:08.019Z,4.49
2018-12-05T05:42:48.483Z,4.57
2018-12-05T05:43:28.904Z,4.61
2018-12-05T05:44:10.257Z,4.56
2018-12-05T05:44:49.705Z,4.53
2018-12-05T05:45:30.092Z,4.65
2018-12-05T05:46:10.493Z,4.56
2018-12-05T05:46:50.939Z,4.69
2018-12-05T05:47:31.310Z,4.71
2018-12-05T05:48:11.680Z,4.84
2018-12-05T05:48:52.087Z,4.99
2018-12-05T05:49:32.489Z,5.05
2018-12-05T05:50:12.878Z,5.05
2018-12-05T05:50:53.255Z,5.12
2018-12-05T05:51:33.607Z,5.2
2018-12-05T05:52:14.066Z,5.27
2018-12-05T05:52:54.499Z,5.23
2018-12-05T05:53:34.822Z,5.26
2018-12-05T05:54:15.289Z,5.2
2018-12-05T05:54:55.672Z,5.17
2018-12-05T05:55:36.017Z,5.17
2018-12-05T05:56:16.454Z,5.14
2018-12-05T05:56:57.036Z,5.08
2018-12-05T05:57:37.695Z,5.09
2018-12-05T05:58:18.073Z,5.02
2018-12-05T05:58:58.439Z,5.12
2018-12-05T05:59:39.010Z,5.02
2018-12-05T06:00:19.439Z,5.02
2018-12-05T06:00:59.790Z,4.99
2018-12-05T06:01:40.192Z,5.08
2018-12-05T06:02:20.541Z,5.01
2018-12-05T06:03:01.034Z,5.09
2018-12-05T06:03:41.431Z,5.08
2018-12-05T06:04:21.857Z,5.15
2018-12-05T06:05:02.224Z,5.19
2018-12-05T06:05:42.625Z,5.23
2018-12-05T06:06:23.084Z,5.3
2018-12-05T06:07:03.440Z,5.4
2018-12-05T06:07:43.802Z,5.52
2018-12-05T06:08:24.197Z,5.62
2018-12-05T06:09:04.637Z,5.48
2018-12-05T06:09:44.980Z,5.55
2018-12-05T06:10:25.445Z,5.58
2018-12-05T06:11:05.858Z,5.6
2018-12-05T06:11:46.299Z,5.55
2018-12-05T06:12:26.665Z,5.62
2018-12-05T06:13:07.095Z,5.56
2018-12-05T06:13:47.468Z,5.42
2018-12-05T06:14:28.003Z,5.42
2018-12-05T06:15:08.385Z,5.49
2018-12-05T06:15:48.831Z,5.47
2018-12-05T06:16:29.306Z,5.48
2018-12-05T06:17:09.735Z,5.48
2018-12-05T06:17:50.167Z,5.51
2018-12-05T06:18:30.555Z,5.65
2018-12-05T06:19:10.923Z,5.7
2018-12-05T06:19:51.375Z,5.75
2018-12-05T06:20:31.765Z,5.81
2018-12-05T06:21:12.571Z,5.67
2018-12-05T06:21:53.104Z,5.7
2018-12-05T06:22:33.582Z,5.67
2018-12-05T06:23:13.960Z,5.63
2018-12-05T06:23:54.419Z,5.67
2018-12-05T06:24:34.757Z,5.62
2018-12-05T06:25:15.218Z,5.65
2018-12-05T06:25:56.419Z,5.6
2018-12-05T06:26:36.078Z,5.56
2018-12-05T06:27:16.457Z,5.49
2018-12-05T06:27:57.309Z,5.49
2018-12-05T06:28:38.455Z,5.52
2018-12-05T06:29:18.811Z,5.56
2018-12-05T06:30:01.781Z,5.52
2018-12-05T06:30:43.739Z,5.62
2018-12-05T06:31:24.155Z,5.73
2018-12-05T06:32:04.537Z,5.7
2018-12-05T06:32:44.835Z,5.65
2018-12-05T06:33:25.231Z,5.65
2018-12-05T06:34:05.726Z,5.67
2018-12-05T06:34:46.101Z,5.73
2018-12-05T06:35:26.527Z,5.69
2018-12-05T06:36:06.919Z,5.77
2018-12-05T06:36:47.337Z,5.95
2018-12-05T06:37:27.738Z,5.96
2018-12-05T06:38:08.108Z,6.01
2018-12-05T06:38:48.502Z,5.93
2018-12-05T06:39:28.878Z,6.01
2018-12-05T06:40:09.328Z,5.98
2018-12-05T06:40:50.626Z,6.06
2018-12-05T06:41:33.288Z,5.99
2018-12-05T06:42:13.776Z,6.06
2018-12-05T06:42:54.208Z,6.08
2018-12-05T06:43:34.744Z,6.05
2018-12-05T06:44:15.138Z,6.06
2018-12-05T06:44:55.537Z,6.17
2018-12-05T06:45:36.779Z,6.03
2018-12-05T06:46:17.137Z,6.16
2018-12-05T06:46:57.677Z,6.17
2018-12-05T06:47:38.137Z,6.13
2018-12-05T06:48:18.567Z,6.06
2018-12-05T06:48:58.959Z,5.93
2018-12-05T06:49:39.306Z,5.95
2018-12-05T06:50:19.702Z,5.96
2018-12-05T06:51:00.266Z,5.98
2018-12-05T06:51:40.870Z,6.05
2018-12-05T06:52:21.324Z,5.92
2018-12-05T06:53:01.825Z,5.85
2018-12-05T06:53:42.439Z,5.87
2018-12-05T06:54:22.907Z,5.96
2018-12-05T06:55:03.399Z,5.84
2018-12-05T06:55:44.127Z,5.78
2018-12-05T06:56:24.656Z,5.81
2018-12-05T06:57:05.014Z,5.78
2018-12-05T06:57:45.938Z,5.74
2018-12-05T06:58:31.062Z,5.77
2018-12-05T06:59:11.723Z,5.67
2018-12-05T06:59:52.194Z,5.65
2018-12-05T07:00:32.671Z,5.77
2018-12-05T07:01:13.057Z,5.98
2018-12-05T07:01:53.562Z,5.96
2018-12-05T07:02:34.040Z,6.19
2018-12-05T07:03:16.556Z,6.42
2018-12-05T07:05:26.089Z,6.65
2018-12-05T07:06:06.363Z,6.64
2018-12-05T07:06:46.814Z,6.72
2018-12-05T07:07:27.258Z,6.68
2018-12-05T07:08:07.716Z,6.54
2018-12-05T07:08:48.094Z,6.53
2018-12-05T07:09:28.766Z,6.53
2018-12-05T07:10:09.092Z,6.55
2018-12-05T07:10:49.484Z,6.46
2018-12-05T07:11:29.951Z,6.48
2018-12-05T07:12:10.284Z,6.46
2018-12-05T07:12:50.768Z,6.4
2018-12-05T07:13:31.308Z,6.32
2018-12-05T07:14:11.640Z,6.28
2018-12-05T07:14:52.117Z,6.21
2018-12-05T07:15:32.531Z,6.16
2018-12-05T07:16:12.933Z,6.08
2018-12-05T07:16:53.336Z,6.21
2018-12-05T07:17:34.019Z,6.1
2018-12-05T07:18:14.468Z,6.17
2018-12-05T07:18:54.936Z,6.16
2018-12-05T07:19:35.651Z,6.11
2018-12-05T07:20:16.263Z,6.11
2018-12-05T07:20:57.013Z,6.2
2018-12-05T07:21:37.088Z,6.25
2018-12-05T07:22:17.552Z,6.28
2018-12-05T07:22:57.981Z,6.24
2018-12-05T07:23:38.405Z,6.38
2018-12-05T07:24:18.946Z,6.4
2018-12-05T07:24:59.597Z,6.36
2018-12-05T07:25:39.968Z,6.28
2018-12-05T07:26:20.357Z,6.32
2018-12-05T07:27:00.712Z,6.19
2018-12-05T07:27:41.313Z,6.11
2018-12-05T07:28:21.807Z,6.02
2018-12-05T07:29:03.017Z,5.99
2018-12-05T07:29:42.935Z,5.93
2018-12-05T07:30:29.394Z,5.88
2018-12-05T07:31:03.893Z,5.92
2018-12-05T07:31:44.250Z,5.7
2018-12-05T07:32:24.797Z,5.69
2018-12-05T07:33:05.135Z,5.66
2018-12-05T07:33:45.699Z,5.65
2018-12-05T07:34:26.068Z,5.59
2018-12-05T07:35:06.372Z,5.45
2018-12-05T07:35:46.919Z,5.4
2018-12-05T07:36:28.015Z,5.37
2018-12-05T07:37:08.021Z,5.38
2018-12-05T07:37:48.615Z,5.42
2018-12-05T07:38:29.165Z,5.29
2018-12-05T07:39:09.713Z,5.3
2018-12-05T07:39:50.192Z,5.27
2018-12-05T07:40:30.611Z,5.27
2018-12-05T07:41:11.063Z,5.32
2018-12-05T07:41:51.471Z,5.45
2018-12-05T07:42:32.597Z,5.49
2018-12-05T07:43:12.524Z,5.58
2018-12-05T07:43:52.973Z,5.67
2018-12-05T07:44:33.464Z,5.73
2018-12-05T07:45:13.835Z,5.83
2018-12-05T07:45:54.494Z,5.88
2018-12-05T07:46:35.608Z,5.81
2018-12-05T07:47:15.492Z,5.81
2018-12-05T07:47:55.885Z,5.88
2018-12-05T07:48:36.379Z,5.9
2018-12-05T07:49:16.844Z,5.87
2018-12-05T07:49:57.413Z,5.85
2018-12-05T07:50:37.814Z,5.83
2018-12-05T07:51:18.228Z,5.84
2018-12-05T07:51:58.727Z,5.84
2018-12-05T07:52:39.107Z,5.88
2018-12-05T07:53:19.616Z,5.96
2018-12-05T07:54:00.047Z,5.99
2018-12-05T07:54:40.756Z,5.92
2018-12-05T07:55:21.350Z,5.96
2018-12-05T07:56:02.860Z,6.02
2018-12-05T07:56:43.336Z,6.08
2018-12-05T07:57:23.796Z,6.05
2018-12-05T07:58:04.374Z,6.03
2018-12-05T07:58:44.906Z,6.06
2018-12-05T07:59:25.434Z,6.02
2018-12-05T08:00:06.069Z,6.05
2018-12-05T08:00:46.521Z,6.02
2018-12-05T08:01:27.070Z,6.05
2018-12-05T08:02:07.669Z,5.99
2018-12-05T08:02:49.127Z,6.01
2018-12-05T08:03:30.176Z,6.03
2018-12-05T08:04:10.625Z,5.98
2018-12-05T08:04:50.701Z,5.92
2018-12-05T08:05:32.276Z,5.93
2018-12-05T08:06:12.814Z,6.02
2018-12-05T08:06:53.239Z,6.08
2018-12-05T08:07:34.092Z,6.13
2018-12-05T08:08:14.771Z,6.05
2018-12-05T08:08:55.096Z,6.02
2018-12-05T08:09:35.778Z,6.11
2018-12-05T08:10:16.551Z,6.11
2018-12-05T08:10:57.271Z,6.13
2018-12-05T08:11:37.822Z,6.11
2018-12-05T08:12:18.223Z,6.19
2018-12-05T08:12:59.388Z,6.08
2018-12-05T08:13:40.499Z,6.19
2018-12-05T08:14:20.979Z,6.27
2018-12-05T08:15:01.454Z,6.27
2018-12-05T08:15:41.848Z,6.11
2018-12-05T08:16:22.527Z,6.2
2018-12-05T08:17:03.115Z,6.1
2018-12-05T08:17:43.498Z,6.05
2018-12-05T08:18:23.935Z,6.03
2018-12-05T08:19:04.460Z,6.01
2018-12-05T08:19:44.856Z,5.87
2018-12-05T08:20:25.554Z,5.74
2018-12-05T08:21:05.984Z,5.77
2018-12-05T08:21:46.438Z,5.74
2018-12-05T08:22:27.667Z,5.7
2018-12-05T08:23:07.980Z,5.67
2018-12-05T08:23:48.677Z,5.69
2018-12-05T08:24:29.421Z,5.74
2018-12-05T08:25:09.769Z,5.8
2018-12-05T08:25:50.247Z,5.88
2018-12-05T08:26:30.839Z,5.93
2018-12-05T08:27:12.103Z,5.92
2018-12-05T08:27:52.636Z,5.84
2018-12-05T08:28:32.715Z,5.88
2018-12-05T08:29:13.492Z,5.88
2018-12-05T08:29:54.331Z,5.8
2018-12-05T08:30:35.720Z,5.81
2018-12-05T08:31:16.093Z,5.78
2018-12-05T08:31:57.628Z,5.74
2018-12-05T08:32:38.241Z,5.7
2018-12-05T08:33:18.284Z,5.69
2018-12-05T08:33:58.930Z,5.7
2018-12-05T08:34:39.363Z,5.69
2018-12-05T08:35:20.191Z,5.56
2018-12-05T08:36:00.813Z,5.47
2018-12-05T08:36:41.796Z,5.45
2018-12-05T08:37:22.641Z,5.32
2018-12-05T08:38:03.065Z,5.44
2018-12-05T08:38:44.129Z,5.48
2018-12-05T08:39:24.213Z,5.41
2018-12-05T08:40:05.634Z,5.47
2018-12-05T08:40:45.357Z,5.51
2018-12-05T08:41:26.122Z,5.59
2018-12-05T08:42:06.621Z,5.66
2018-12-05T08:42:47.114Z,5.75
2018-12-05T08:43:27.532Z,5.85
2018-12-05T08:44:08.110Z,5.95
2018-12-05T08:44:48.548Z,5.95
2018-12-05T08:45:29.042Z,5.96
2018-12-05T08:46:09.521Z,5.99
2018-12-05T08:46:50.133Z,6.02
2018-12-05T08:47:33.713Z,6.13
2018-12-05T08:48:12.112Z,6.05
2018-12-05T08:48:52.129Z,6.02
2018-12-05T08:49:32.480Z,6.03
2018-12-05T08:50:13.096Z,5.98
2018-12-05T08:50:53.571Z,6.05
2018-12-05T08:51:34.301Z,5.99
2018-12-05T08:52:15.047Z,6.02
2018-12-05T08:52:55.484Z,5.92
2018-12-05T08:53:36.031Z,6.1
2018-12-05T08:54:20.962Z,6.06
2018-12-05T08:54:57.186Z,6.11
2018-12-05T08:55:37.709Z,6.11
2018-12-05T08:56:18.122Z,6.06
2018-12-05T08:56:58.658Z,6.05
2018-12-05T08:57:39.098Z,6.11
2018-12-05T08:58:19.471Z,6.11
2018-12-05T08:58:59.872Z,6.24
2018-12-05T08:59:40.531Z,6.42
2018-12-05T09:00:21.012Z,6.46
2018-12-05T09:01:01.668Z,6.65
2018-12-05T09:01:42.193Z,6.68
2018-12-05T09:02:23.099Z,6.78
2018-12-05T09:03:03.104Z,6.79
2018-12-05T09:03:43.433Z,6.72
2018-12-05T09:04:23.887Z,6.83
2018-12-05T09:05:04.482Z,6.97
2018-12-05T09:05:44.970Z,7.08
2018-12-05T09:06:26.139Z,7.09
2018-12-05T09:07:06.070Z,7.08
2018-12-05T09:07:46.534Z,7.07
2018-12-05T09:08:26.943Z,6.99
2018-12-05T09:09:07.455Z,6.93
2018-12-05T09:09:49.149Z,6.86
2018-12-05T09:10:29.241Z,6.78
2018-12-05T09:11:09.761Z,6.69
2018-12-05T09:11:50.278Z,6.65
2018-12-05T09:12:30.718Z,6.55
2018-12-05T09:13:11.163Z,6.55
2018-12-05T09:13:51.616Z,6.64
2018-12-05T09:14:32.163Z,6.75
2018-12-05T09:15:12.558Z,6.87
2018-12-05T09:15:53.034Z,6.83
2018-12-05T09:16:33.701Z,7.05
2018-12-05T09:17:14.160Z,7.19
2018-12-05T09:17:55.641Z,7.39
2018-12-05T09:18:35.312Z,7.55
2018-12-05T09:19:15.750Z,7.71
2018-12-05T09:19:56.331Z,7.63
2018-12-05T09:20:37.690Z,7.57
2018-12-05T09:21:17.452Z,7.6
2018-12-05T09:21:57.951Z,7.55
2018-12-05T09:22:41.320Z,7.51
2018-12-05T09:23:18.905Z,7.57
2018-12-05T09:23:59.599Z,7.5
2018-12-05T09:24:40.119Z,7.55
2018-12-05T09:25:20.689Z,7.73
2018-12-05T09:26:01.205Z,7.85
2018-12-05T09:26:41.618Z,7.92
2018-12-05T09:27:22.043Z,7.96
2018-12-05T09:28:02.455Z,8.03
2018-12-05T09:28:42.923Z,8.14
2018-12-05T09:29:23.528Z,8.21
2018-12-05T09:30:03.956Z,8.28
2018-12-05T09:30:44.439Z,8.43
2018-12-05T09:31:24.869Z,8.47
2018-12-05T09:32:05.419Z,8.54
2018-12-05T09:32:46.025Z,8.43
2018-12-05T09:33:26.441Z,8.32
2018-12-05T09:34:07.018Z,8.27
2018-12-05T09:34:47.580Z,8.27
2018-12-05T09:35:28.205Z,8.36
2018-12-05T09:36:08.712Z,8.32
2018-12-05T09:36:49.520Z,8.29
2018-12-05T09:37:30.138Z,8.36
2018-12-05T09:38:11.719Z,8.32
2018-12-05T09:38:51.761Z,8.28
2018-12-05T09:39:32.249Z,8.04
2018-12-05T09:40:12.793Z,7.96
2018-12-05T09:40:53.451Z,7.82
2018-12-05T09:41:35.133Z,7.76
2018-12-05T09:42:15.047Z,7.76
2018-12-05T09:42:55.511Z,7.71
2018-12-05T09:43:37.163Z,7.7
2018-12-05T09:44:16.848Z,7.67
2018-12-05T09:44:58.623Z,7.6
2018-12-05T09:45:39.149Z,7.58
2018-12-05T09:46:19.585Z,7.45
2018-12-05T09:47:00.277Z,7.3
2018-12-05T09:47:41.640Z,7.34
2018-12-05T09:48:22.777Z,7.5
2018-12-05T09:49:02.767Z,7.5
2018-12-05T09:49:43.629Z,7.6
2018-12-05T09:50:23.964Z,7.57
2018-12-05T09:51:05.144Z,7.66
2018-12-05T09:51:44.971Z,7.6
2018-12-05T09:52:25.395Z,7.63
2018-12-05T09:53:05.833Z,7.57
2018-12-05T09:53:46.348Z,7.55
2018-12-05T09:54:26.753Z,7.55
2018-12-05T09:55:07.206Z,7.62